sensor_id;sensor_type;location;lat;lon;timestamp;pressure;altitude;pressure_sealevel;temperature;humidity
35307;BME280;21420;52.196;21.416;2023-01-27T00:00:37;100625.16;;;0.14;74.20
35307;BME280;21420;52.196;21.416;2023-01-27T00:03:05;100623.17;;;0.14;74.17
35307;BME280;21420;52.196;21.416;2023-01-27T00:05:32;100625.61;;;0.15;74.29
35307;BME280;21420;52.196;21.416;2023-01-27T00:07:59;100625.21;;;0.12;74.19
35307;BME280;21420;52.196;21.416;2023-01-27T00:10:26;100620.33;;;0.08;74.01
35307;BME280;21420;52.196;21.416;2023-01-27T00:12:53;100618.80;;;0.04;74.04
35307;BME280;21420;52.196;21.416;2023-01-27T00:15:39;100621.69;;;-0.01;73.95
35307;BME280;21420;52.196;21.416;2023-01-27T00:18:06;100626.32;;;0.01;74.04
35307;BME280;21420;52.196;21.416;2023-01-27T00:20:35;100630.44;;;0.03;74.05
35307;BME280;21420;52.196;21.416;2023-01-27T00:23:24;100634.15;;;0.03;74.17
35307;BME280;21420;52.196;21.416;2023-01-27T00:26:13;100635.35;;;0.05;74.39
35307;BME280;21420;52.196;21.416;2023-01-27T00:28:42;100637.51;;;0.07;74.41
35307;BME280;21420;52.196;21.416;2023-01-27T00:31:12;100642.33;;;0.10;74.34
35307;BME280;21420;52.196;21.416;2023-01-27T00:33:58;100642.23;;;0.13;74.47
35307;BME280;21420;52.196;21.416;2023-01-27T00:36:39;100640.91;;;0.16;74.57
35307;BME280;21420;52.196;21.416;2023-01-27T00:39:07;100638.94;;;0.21;74.50
35307;BME280;21420;52.196;21.416;2023-01-27T00:41:34;100642.63;;;0.24;74.48
35307;BME280;21420;52.196;21.416;2023-01-27T00:44:02;100648.89;;;0.25;74.49
35307;BME280;21420;52.196;21.416;2023-01-27T00:46:31;100653.41;;;0.25;74.54
35307;BME280;21420;52.196;21.416;2023-01-27T00:49:00;100654.06;;;0.27;74.44
35307;BME280;21420;52.196;21.416;2023-01-27T00:51:27;100647.42;;;0.26;74.57
35307;BME280;21420;52.196;21.416;2023-01-27T00:53:54;100652.70;;;0.24;74.60
35307;BME280;21420;52.196;21.416;2023-01-27T00:56:21;100654.04;;;0.20;74.51
35307;BME280;21420;52.196;21.416;2023-01-27T00:58:48;100656.23;;;0.20;74.50
35307;BME280;21420;52.196;21.416;2023-01-27T01:01:16;100654.49;;;0.19;74.33
35307;BME280;21420;52.196;21.416;2023-01-27T01:03:44;100648.91;;;0.12;74.18
35307;BME280;21420;52.196;21.416;2023-01-27T01:06:14;100643.20;;;0.05;74.08
35307;BME280;21420;52.196;21.416;2023-01-27T01:08:41;100643.87;;;-0.02;73.98
35307;BME280;21420;52.196;21.416;2023-01-27T01:11:12;100642.48;;;-0.10;74.00
35307;BME280;21420;52.196;21.416;2023-01-27T01:13:40;100648.47;;;-0.13;74.00
35307;BME280;21420;52.196;21.416;2023-01-27T01:16:14;100645.04;;;-0.11;74.10
35307;BME280;21420;52.196;21.416;2023-01-27T01:18:42;100646.36;;;-0.06;74.20
35307;BME280;21420;52.196;21.416;2023-01-27T01:21:10;100649.02;;;-0.03;74.32
35307;BME280;21420;52.196;21.416;2023-01-27T01:23:43;100648.27;;;-0.03;74.28
35307;BME280;21420;52.196;21.416;2023-01-27T01:26:12;100645.56;;;-0.04;74.36
35307;BME280;21420;52.196;21.416;2023-01-27T01:28:40;100642.61;;;-0.04;74.21
35307;BME280;21420;52.196;21.416;2023-01-27T01:31:10;100644.92;;;0.00;74.32
35307;BME280;21420;52.196;21.416;2023-01-27T01:33:37;100644.09;;;-0.01;74.21
35307;BME280;21420;52.196;21.416;2023-01-27T01:36:10;100645.23;;;0.01;74.44
35307;BME280;21420;52.196;21.416;2023-01-27T01:38:37;100645.77;;;-0.01;74.45
35307;BME280;21420;52.196;21.416;2023-01-27T01:41:05;100647.20;;;-0.10;74.21
35307;BME280;21420;52.196;21.416;2023-01-27T01:43:33;100646.94;;;-0.16;74.11
35307;BME280;21420;52.196;21.416;2023-01-27T01:46:00;100646.25;;;-0.22;73.99
35307;BME280;21420;52.196;21.416;2023-01-27T01:51:19;100644.04;;;-0.29;74.12
35307;BME280;21420;52.196;21.416;2023-01-27T01:54:00;100648.02;;;-0.30;74.01
35307;BME280;21420;52.196;21.416;2023-01-27T01:56:38;100641.65;;;-0.33;74.11
35307;BME280;21420;52.196;21.416;2023-01-27T01:59:14;100638.73;;;-0.39;73.80
35307;BME280;21420;52.196;21.416;2023-01-27T02:01:43;100639.23;;;-0.46;73.96
35307;BME280;21420;52.196;21.416;2023-01-27T02:04:15;100639.69;;;-0.47;74.00
35307;BME280;21420;52.196;21.416;2023-01-27T02:06:49;100637.76;;;-0.46;74.22
35307;BME280;21420;52.196;21.416;2023-01-27T02:09:20;100631.52;;;-0.51;74.16
35307;BME280;21420;52.196;21.416;2023-01-27T02:11:47;100629.48;;;-0.56;74.09
35307;BME280;21420;52.196;21.416;2023-01-27T02:14:18;100633.93;;;-0.60;74.13
35307;BME280;21420;52.196;21.416;2023-01-27T02:16:45;100632.66;;;-0.57;74.29
35307;BME280;21420;52.196;21.416;2023-01-27T02:19:26;100631.50;;;-0.48;74.48
35307;BME280;21420;52.196;21.416;2023-01-27T02:21:59;100631.47;;;-0.38;74.58
35307;BME280;21420;52.196;21.416;2023-01-27T02:24:34;100633.41;;;-0.32;74.69
35307;BME280;21420;52.196;21.416;2023-01-27T02:27:03;100637.02;;;-0.28;74.55
35307;BME280;21420;52.196;21.416;2023-01-27T02:29:30;100637.56;;;-0.24;74.71
35307;BME280;21420;52.196;21.416;2023-01-27T02:31:57;100636.19;;;-0.21;74.68
35307;BME280;21420;52.196;21.416;2023-01-27T02:34:27;100635.45;;;-0.19;74.72
35307;BME280;21420;52.196;21.416;2023-01-27T02:36:58;100633.99;;;-0.19;74.67
35307;BME280;21420;52.196;21.416;2023-01-27T02:39:34;100639.08;;;-0.23;74.50
35307;BME280;21420;52.196;21.416;2023-01-27T02:42:05;100638.68;;;-0.26;74.46
35307;BME280;21420;52.196;21.416;2023-01-27T02:44:33;100637.65;;;-0.26;74.43
35307;BME280;21420;52.196;21.416;2023-01-27T02:47:01;100642.22;;;-0.27;74.61
35307;BME280;21420;52.196;21.416;2023-01-27T02:49:28;100641.94;;;-0.22;74.67
35307;BME280;21420;52.196;21.416;2023-01-27T02:51:55;100643.11;;;-0.17;74.76
35307;BME280;21420;52.196;21.416;2023-01-27T02:54:26;100639.36;;;-0.13;74.85
35307;BME280;21420;52.196;21.416;2023-01-27T02:56:53;100639.44;;;-0.11;74.84
35307;BME280;21420;52.196;21.416;2023-01-27T02:59:21;100641.92;;;-0.10;74.82
35307;BME280;21420;52.196;21.416;2023-01-27T03:01:48;100643.77;;;-0.09;74.86
35307;BME280;21420;52.196;21.416;2023-01-27T03:04:15;100643.36;;;-0.10;74.78
35307;BME280;21420;52.196;21.416;2023-01-27T03:06:42;100645.20;;;-0.12;74.65
35307;BME280;21420;52.196;21.416;2023-01-27T03:09:09;100646.52;;;-0.15;74.77
35307;BME280;21420;52.196;21.416;2023-01-27T03:11:36;100646.99;;;-0.16;74.79
35307;BME280;21420;52.196;21.416;2023-01-27T03:14:22;100649.62;;;-0.18;74.71
35307;BME280;21420;52.196;21.416;2023-01-27T03:17:14;100650.58;;;-0.20;74.78
35307;BME280;21420;52.196;21.416;2023-01-27T03:20:02;100654.17;;;-0.21;74.70
35307;BME280;21420;52.196;21.416;2023-01-27T03:22:33;100652.03;;;-0.26;74.54
35307;BME280;21420;52.196;21.416;2023-01-27T03:25:00;100645.65;;;-0.35;74.27
35307;BME280;21420;52.196;21.416;2023-01-27T03:27:27;100645.81;;;-0.43;74.18
35307;BME280;21420;52.196;21.416;2023-01-27T03:30:20;100644.79;;;-0.49;74.17
35307;BME280;21420;52.196;21.416;2023-01-27T03:33:07;100646.99;;;-0.48;74.36
35307;BME280;21420;52.196;21.416;2023-01-27T03:35:53;100649.88;;;-0.46;74.48
35307;BME280;21420;52.196;21.416;2023-01-27T03:38:45;100651.17;;;-0.51;74.41
35307;BME280;21420;52.196;21.416;2023-01-27T03:41:31;100650.79;;;-0.52;74.51
35307;BME280;21420;52.196;21.416;2023-01-27T03:44:17;100655.36;;;-0.52;74.56
35307;BME280;21420;52.196;21.416;2023-01-27T03:47:03;100655.05;;;-0.55;74.47
35307;BME280;21420;52.196;21.416;2023-01-27T03:49:30;100653.96;;;-0.64;74.33
35307;BME280;21420;52.196;21.416;2023-01-27T03:51:57;100654.27;;;-0.71;74.20
35307;BME280;21420;52.196;21.416;2023-01-27T03:54:24;100656.48;;;-0.75;74.26
35307;BME280;21420;52.196;21.416;2023-01-27T03:56:51;100657.14;;;-0.74;74.44
35307;BME280;21420;52.196;21.416;2023-01-27T03:59:18;100656.69;;;-0.71;74.62
35307;BME280;21420;52.196;21.416;2023-01-27T04:01:45;100658.10;;;-0.70;74.53
35307;BME280;21420;52.196;21.416;2023-01-27T04:04:12;100657.57;;;-0.74;74.43
35307;BME280;21420;52.196;21.416;2023-01-27T04:06:58;100660.19;;;-0.76;74.47
35307;BME280;21420;52.196;21.416;2023-01-27T04:09:30;100661.14;;;-0.77;74.52
35307;BME280;21420;52.196;21.416;2023-01-27T04:12:02;100665.84;;;-0.76;74.75
35307;BME280;21420;52.196;21.416;2023-01-27T04:14:37;100670.48;;;-0.75;74.79
35307;BME280;21420;52.196;21.416;2023-01-27T04:19:33;100667.38;;;-0.77;74.81
35307;BME280;21420;52.196;21.416;2023-01-27T04:22:02;100671.22;;;-0.80;74.92
35307;BME280;21420;52.196;21.416;2023-01-27T04:24:29;100674.42;;;-0.82;74.80
35307;BME280;21420;52.196;21.416;2023-01-27T04:27:02;100675.42;;;-0.85;74.82
35307;BME280;21420;52.196;21.416;2023-01-27T04:29:31;100676.52;;;-0.88;74.80
35307;BME280;21420;52.196;21.416;2023-01-27T04:32:03;100675.39;;;-0.89;74.79
35307;BME280;21420;52.196;21.416;2023-01-27T04:34:35;100673.55;;;-0.89;74.73
35307;BME280;21420;52.196;21.416;2023-01-27T04:37:03;100671.27;;;-0.91;74.75
35307;BME280;21420;52.196;21.416;2023-01-27T04:39:31;100674.41;;;-0.90;74.88
35307;BME280;21420;52.196;21.416;2023-01-27T04:41:59;100677.59;;;-0.89;74.89
35307;BME280;21420;52.196;21.416;2023-01-27T04:44:28;100680.77;;;-0.88;74.97
35307;BME280;21420;52.196;21.416;2023-01-27T04:46:55;100682.35;;;-0.86;75.04
35307;BME280;21420;52.196;21.416;2023-01-27T04:49:22;100679.61;;;-0.86;74.90
35307;BME280;21420;52.196;21.416;2023-01-27T04:51:53;100674.66;;;-0.86;74.96
35307;BME280;21420;52.196;21.416;2023-01-27T04:54:20;100674.38;;;-0.87;75.02
35307;BME280;21420;52.196;21.416;2023-01-27T04:56:58;100677.33;;;-0.88;74.90
35307;BME280;21420;52.196;21.416;2023-01-27T04:59:26;100684.96;;;-0.92;75.11
35307;BME280;21420;52.196;21.416;2023-01-27T05:01:53;100686.08;;;-0.94;74.90
35307;BME280;21420;52.196;21.416;2023-01-27T05:04:20;100682.95;;;-0.94;75.04
35307;BME280;21420;52.196;21.416;2023-01-27T05:06:47;100685.41;;;-0.95;74.92
35307;BME280;21420;52.196;21.416;2023-01-27T05:09:14;100681.00;;;-1.01;74.77
35307;BME280;21420;52.196;21.416;2023-01-27T05:11:41;100682.89;;;-1.10;74.63
35307;BME280;21420;52.196;21.416;2023-01-27T05:14:08;100691.33;;;-1.19;74.43
35307;BME280;21420;52.196;21.416;2023-01-27T05:16:37;100694.21;;;-1.23;74.54
35307;BME280;21420;52.196;21.416;2023-01-27T05:19:04;100694.19;;;-1.22;74.63
35307;BME280;21420;52.196;21.416;2023-01-27T05:21:31;100698.09;;;-1.20;74.73
35307;BME280;21420;52.196;21.416;2023-01-27T05:23:58;100700.56;;;-1.18;74.78
35307;BME280;21420;52.196;21.416;2023-01-27T05:26:26;100704.92;;;-1.22;74.68
35307;BME280;21420;52.196;21.416;2023-01-27T05:28:56;100706.07;;;-1.26;74.52
35307;BME280;21420;52.196;21.416;2023-01-27T05:31:27;100708.98;;;-1.25;74.64
35307;BME280;21420;52.196;21.416;2023-01-27T05:33:57;100711.29;;;-1.25;74.64
35307;BME280;21420;52.196;21.416;2023-01-27T05:36:25;100714.98;;;-1.27;74.74
35307;BME280;21420;52.196;21.416;2023-01-27T05:38:53;100716.80;;;-1.30;74.54
35307;BME280;21420;52.196;21.416;2023-01-27T05:41:21;100717.15;;;-1.34;74.66
35307;BME280;21420;52.196;21.416;2023-01-27T05:43:53;100715.55;;;-1.32;74.73
35307;BME280;21420;52.196;21.416;2023-01-27T05:46:23;100717.64;;;-1.28;74.78
35307;BME280;21420;52.196;21.416;2023-01-27T05:48:57;100713.73;;;-1.23;74.95
35307;BME280;21420;52.196;21.416;2023-01-27T05:51:26;100712.50;;;-1.19;74.91
35307;BME280;21420;52.196;21.416;2023-01-27T05:53:54;100717.65;;;-1.15;74.99
35307;BME280;21420;52.196;21.416;2023-01-27T05:56:22;100721.02;;;-1.12;75.07
35307;BME280;21420;52.196;21.416;2023-01-27T05:58:49;100725.27;;;-1.08;75.09
35307;BME280;21420;52.196;21.416;2023-01-27T06:01:19;100721.52;;;-1.02;75.25
35307;BME280;21420;52.196;21.416;2023-01-27T06:03:47;100721.60;;;-1.00;75.24
35307;BME280;21420;52.196;21.416;2023-01-27T06:06:17;100724.42;;;-1.02;75.15
35307;BME280;21420;52.196;21.416;2023-01-27T06:08:44;100730.77;;;-1.01;75.18
35307;BME280;21420;52.196;21.416;2023-01-27T06:11:13;100729.16;;;-1.01;75.13
35307;BME280;21420;52.196;21.416;2023-01-27T06:13:41;100731.41;;;-1.02;75.00
35307;BME280;21420;52.196;21.416;2023-01-27T06:16:10;100734.47;;;-1.03;75.12
35307;BME280;21420;52.196;21.416;2023-01-27T06:18:38;100740.83;;;-1.02;75.07
35307;BME280;21420;52.196;21.416;2023-01-27T06:21:07;100744.60;;;-1.00;75.13
35307;BME280;21420;52.196;21.416;2023-01-27T06:23:34;100745.81;;;-0.98;75.22
35307;BME280;21420;52.196;21.416;2023-01-27T06:26:13;100747.51;;;-0.97;75.13
35307;BME280;21420;52.196;21.416;2023-01-27T06:28:41;100757.35;;;-0.95;75.06
35307;BME280;21420;52.196;21.416;2023-01-27T06:31:11;100759.27;;;-0.94;75.21
35307;BME280;21420;52.196;21.416;2023-01-27T06:33:39;100762.46;;;-0.90;75.19
35307;BME280;21420;52.196;21.416;2023-01-27T06:36:11;100763.89;;;-0.89;75.13
35307;BME280;21420;52.196;21.416;2023-01-27T06:38:39;100770.86;;;-0.90;75.18
35307;BME280;21420;52.196;21.416;2023-01-27T06:41:06;100774.38;;;-0.90;75.27
35307;BME280;21420;52.196;21.416;2023-01-27T06:43:33;100772.92;;;-0.85;75.31
35307;BME280;21420;52.196;21.416;2023-01-27T06:46:00;100770.13;;;-0.81;75.43
35307;BME280;21420;52.196;21.416;2023-01-27T06:48:31;100768.74;;;-0.79;75.32
35307;BME280;21420;52.196;21.416;2023-01-27T06:50:59;100770.47;;;-0.79;75.20
35307;BME280;21420;52.196;21.416;2023-01-27T06:53:27;100766.39;;;-0.78;75.18
35307;BME280;21420;52.196;21.416;2023-01-27T06:55:58;100770.10;;;-0.78;75.19
35307;BME280;21420;52.196;21.416;2023-01-27T06:58:26;100771.66;;;-0.77;75.09
35307;BME280;21420;52.196;21.416;2023-01-27T07:00:54;100776.54;;;-0.76;75.04
35307;BME280;21420;52.196;21.416;2023-01-27T07:03:21;100777.31;;;-0.74;75.02
35307;BME280;21420;52.196;21.416;2023-01-27T07:05:49;100773.21;;;-0.70;75.03
35307;BME280;21420;52.196;21.416;2023-01-27T07:08:16;100772.58;;;-0.64;75.08
35307;BME280;21420;52.196;21.416;2023-01-27T07:10:43;100775.44;;;-0.58;75.26
35307;BME280;21420;52.196;21.416;2023-01-27T07:13:13;100774.12;;;-0.47;75.24
35307;BME280;21420;52.196;21.416;2023-01-27T07:15:40;100773.13;;;-0.34;75.35
35307;BME280;21420;52.196;21.416;2023-01-27T07:18:09;100776.27;;;-0.20;75.45
35307;BME280;21420;52.196;21.416;2023-01-27T07:20:36;100777.16;;;-0.06;75.58
35307;BME280;21420;52.196;21.416;2023-01-27T07:23:04;100774.86;;;0.07;75.51
35307;BME280;21420;52.196;21.416;2023-01-27T07:25:32;100775.65;;;0.19;75.76
35307;BME280;21420;52.196;21.416;2023-01-27T07:28:01;100773.83;;;0.33;75.65
35307;BME280;21420;52.196;21.416;2023-01-27T07:30:29;100777.86;;;0.47;75.63
35307;BME280;21420;52.196;21.416;2023-01-27T07:33:07;100778.31;;;0.58;75.75
35307;BME280;21420;52.196;21.416;2023-01-27T07:35:36;100780.11;;;0.68;75.69
35307;BME280;21420;52.196;21.416;2023-01-27T07:38:04;100781.73;;;0.79;75.59
35307;BME280;21420;52.196;21.416;2023-01-27T07:40:32;100780.65;;;0.87;75.61
35307;BME280;21420;52.196;21.416;2023-01-27T07:42:59;100780.91;;;0.98;75.64
35307;BME280;21420;52.196;21.416;2023-01-27T07:45:28;100777.05;;;1.13;75.74
35307;BME280;21420;52.196;21.416;2023-01-27T07:48:02;100780.18;;;1.26;75.74
35307;BME280;21420;52.196;21.416;2023-01-27T07:50:29;100778.94;;;1.38;75.71
35307;BME280;21420;52.196;21.416;2023-01-27T07:53:01;100775.73;;;1.50;75.65
35307;BME280;21420;52.196;21.416;2023-01-27T07:55:29;100771.89;;;1.64;75.66
35307;BME280;21420;52.196;21.416;2023-01-27T07:57:56;100773.37;;;1.76;75.63
35307;BME280;21420;52.196;21.416;2023-01-27T08:00:23;100776.25;;;1.84;75.72
35307;BME280;21420;52.196;21.416;2023-01-27T08:02:52;100781.27;;;1.89;75.61
35307;BME280;21420;52.196;21.416;2023-01-27T08:05:19;100784.58;;;1.92;75.56
35307;BME280;21420;52.196;21.416;2023-01-27T08:07:48;100783.77;;;1.92;75.52
35307;BME280;21420;52.196;21.416;2023-01-27T08:10:15;100786.14;;;1.88;75.51
35307;BME280;21420;52.196;21.416;2023-01-27T08:12:45;100787.27;;;1.81;75.41
35307;BME280;21420;52.196;21.416;2023-01-27T08:15:13;100788.97;;;1.75;75.35
35307;BME280;21420;52.196;21.416;2023-01-27T08:17:52;100787.23;;;1.71;75.33
35307;BME280;21420;52.196;21.416;2023-01-27T08:20:19;100787.23;;;1.68;75.30
35307;BME280;21420;52.196;21.416;2023-01-27T08:22:46;100789.00;;;1.64;75.27
35307;BME280;21420;52.196;21.416;2023-01-27T08:25:13;100784.52;;;1.65;75.37
35307;BME280;21420;52.196;21.416;2023-01-27T08:27:40;100785.17;;;1.68;75.43
35307;BME280;21420;52.196;21.416;2023-01-27T08:30:10;100793.06;;;1.71;75.52
35307;BME280;21420;52.196;21.416;2023-01-27T08:32:38;100797.84;;;1.75;75.38
35307;BME280;21420;52.196;21.416;2023-01-27T08:35:06;100798.44;;;1.79;75.43
35307;BME280;21420;52.196;21.416;2023-01-27T08:37:34;100799.14;;;1.79;75.38
35307;BME280;21420;52.196;21.416;2023-01-27T08:40:01;100795.02;;;1.78;75.30
35307;BME280;21420;52.196;21.416;2023-01-27T08:42:29;100796.05;;;1.75;75.18
35307;BME280;21420;52.196;21.416;2023-01-27T08:44:56;100795.99;;;1.73;75.17
35307;BME280;21420;52.196;21.416;2023-01-27T08:47:24;100796.48;;;1.73;75.10
35307;BME280;21420;52.196;21.416;2023-01-27T08:49:51;100795.73;;;1.75;75.16
35307;BME280;21420;52.196;21.416;2023-01-27T08:52:20;100795.20;;;1.78;75.20
35307;BME280;21420;52.196;21.416;2023-01-27T08:54:48;100789.74;;;1.81;75.16
35307;BME280;21420;52.196;21.416;2023-01-27T08:57:15;100785.88;;;1.88;75.20
35307;BME280;21420;52.196;21.416;2023-01-27T08:59:42;100786.79;;;1.97;75.35
35307;BME280;21420;52.196;21.416;2023-01-27T09:02:12;100790.59;;;2.06;75.46
35307;BME280;21420;52.196;21.416;2023-01-27T09:04:40;100791.36;;;2.18;75.50
35307;BME280;21420;52.196;21.416;2023-01-27T09:07:10;100792.97;;;2.32;75.49
35307;BME280;21420;52.196;21.416;2023-01-27T09:09:38;100796.48;;;2.42;75.31
35307;BME280;21420;52.196;21.416;2023-01-27T09:12:06;100801.29;;;2.51;75.32
35307;BME280;21420;52.196;21.416;2023-01-27T09:14:33;100804.80;;;2.62;75.48
35307;BME280;21420;52.196;21.416;2023-01-27T09:17:01;100806.13;;;2.75;75.49
35307;BME280;21420;52.196;21.416;2023-01-27T09:19:28;100807.21;;;2.82;75.48
35307;BME280;21420;52.196;21.416;2023-01-27T09:21:55;100810.02;;;2.80;75.18
35307;BME280;21420;52.196;21.416;2023-01-27T09:24:22;100807.81;;;2.73;75.06
35307;BME280;21420;52.196;21.416;2023-01-27T09:26:49;100813.77;;;2.68;75.03
35307;BME280;21420;52.196;21.416;2023-01-27T09:29:16;100815.45;;;2.65;75.03
35307;BME280;21420;52.196;21.416;2023-01-27T09:31:43;100816.48;;;2.64;75.05
35307;BME280;21420;52.196;21.416;2023-01-27T09:34:10;100813.73;;;2.64;75.01
35307;BME280;21420;52.196;21.416;2023-01-27T09:36:42;100811.84;;;2.66;75.12
35307;BME280;21420;52.196;21.416;2023-01-27T09:39:14;100810.04;;;2.68;75.22
35307;BME280;21420;52.196;21.416;2023-01-27T09:58:20;100807.73;;;3.16;75.27
35307;BME280;21420;52.196;21.416;2023-01-27T10:06:10;100811.69;;;3.39;75.07
35307;BME280;21420;52.196;21.416;2023-01-27T10:28:23;100824.40;;;3.43;74.81
35307;BME280;21420;52.196;21.416;2023-01-27T10:31:03;100821.63;;;3.45;74.79
35307;BME280;21420;52.196;21.416;2023-01-27T10:36:29;100827.95;;;3.49;74.79
35307;BME280;21420;52.196;21.416;2023-01-27T10:39:19;100828.39;;;3.48;74.71
35307;BME280;21420;52.196;21.416;2023-01-27T10:50:39;100839.92;;;3.30;74.47
35307;BME280;21420;52.196;21.416;2023-01-27T10:53:15;100842.17;;;3.24;74.44
35307;BME280;21420;52.196;21.416;2023-01-27T10:55:57;100842.18;;;3.19;74.39
35307;BME280;21420;52.196;21.416;2023-01-27T10:59:21;100841.22;;;3.14;74.37
35307;BME280;21420;52.196;21.416;2023-01-27T11:01:27;100842.74;;;3.17;74.56
35307;BME280;21420;52.196;21.416;2023-01-27T11:04:06;100841.31;;;3.22;74.58
35307;BME280;21420;52.196;21.416;2023-01-27T11:06:37;100837.23;;;3.27;74.73
35307;BME280;21420;52.196;21.416;2023-01-27T11:11:52;100837.02;;;3.42;74.63
35307;BME280;21420;52.196;21.416;2023-01-27T11:14:30;100835.83;;;3.45;74.54
35307;BME280;21420;52.196;21.416;2023-01-27T11:17:30;100834.03;;;3.46;74.56
35307;BME280;21420;52.196;21.416;2023-01-27T11:22:49;100827.85;;;3.60;74.70
35307;BME280;21420;52.196;21.416;2023-01-27T11:25:31;100822.13;;;3.64;74.66
35307;BME280;21420;52.196;21.416;2023-01-27T11:28:19;100816.23;;;3.66;74.55
35307;BME280;21420;52.196;21.416;2023-01-27T11:34:31;100815.92;;;3.83;74.67
35307;BME280;21420;52.196;21.416;2023-01-27T11:37:29;100810.61;;;3.89;74.47
35307;BME280;21420;52.196;21.416;2023-01-27T11:39:57;100807.64;;;3.96;74.39
35307;BME280;21420;52.196;21.416;2023-01-27T11:42:34;100801.42;;;4.05;74.40
35307;BME280;21420;52.196;21.416;2023-01-27T11:45:02;100801.10;;;4.17;74.48
35307;BME280;21420;52.196;21.416;2023-01-27T11:47:36;100797.34;;;4.29;74.42
35307;BME280;21420;52.196;21.416;2023-01-27T11:50:06;100800.55;;;4.45;74.48
35307;BME280;21420;52.196;21.416;2023-01-27T11:52:34;100797.70;;;4.73;74.86
35307;BME280;21420;52.196;21.416;2023-01-27T11:57:33;100787.86;;;5.30;74.89
35307;BME280;21420;52.196;21.416;2023-01-27T12:00:15;100789.73;;;5.46;74.74
35307;BME280;21420;52.196;21.416;2023-01-27T12:05:55;100787.65;;;5.66;74.45
35307;BME280;21420;52.196;21.416;2023-01-27T12:08:43;100786.73;;;5.73;74.32
35307;BME280;21420;52.196;21.416;2023-01-27T12:13:59;100786.36;;;5.86;74.09
35307;BME280;21420;52.196;21.416;2023-01-27T12:16:43;100787.09;;;5.92;74.06
35307;BME280;21420;52.196;21.416;2023-01-27T12:21:50;100780.88;;;6.01;73.97
35307;BME280;21420;52.196;21.416;2023-01-27T12:24:32;100781.91;;;6.08;74.05
35307;BME280;21420;52.196;21.416;2023-01-27T12:27:02;100782.77;;;6.08;73.83
35307;BME280;21420;52.196;21.416;2023-01-27T12:29:39;100778.17;;;6.00;73.56
35307;BME280;21420;52.196;21.416;2023-01-27T12:32:22;100782.68;;;5.92;73.44
35307;BME280;21420;52.196;21.416;2023-01-27T12:34:52;100784.16;;;5.91;73.53
35307;BME280;21420;52.196;21.416;2023-01-27T12:37:26;100787.98;;;5.87;73.62
35307;BME280;21420;52.196;21.416;2023-01-27T12:40:02;100787.02;;;5.81;73.51
35307;BME280;21420;52.196;21.416;2023-01-27T12:53:25;100798.55;;;5.02;73.16
35307;BME280;21420;52.196;21.416;2023-01-27T12:56:12;100798.33;;;4.91;73.08
35307;BME280;21420;52.196;21.416;2023-01-27T12:58:43;100804.67;;;4.77;73.05
35307;BME280;21420;52.196;21.416;2023-01-27T13:04:18;100798.70;;;4.46;73.00
35307;BME280;21420;52.196;21.416;2023-01-27T13:06:54;100801.18;;;4.29;73.02
35307;BME280;21420;52.196;21.416;2023-01-27T13:09:47;100800.21;;;4.22;73.19
35307;BME280;21420;52.196;21.416;2023-01-27T13:12:23;100803.48;;;4.12;73.04
35307;BME280;21420;52.196;21.416;2023-01-27T13:14:53;100801.73;;;3.97;72.91
35307;BME280;21420;52.196;21.416;2023-01-27T13:17:28;100804.34;;;3.79;72.90
35307;BME280;21420;52.196;21.416;2023-01-27T13:19:58;100808.05;;;3.65;72.76
35307;BME280;21420;52.196;21.416;2023-01-27T13:22:41;100804.04;;;3.54;72.81
35307;BME280;21420;52.196;21.416;2023-01-27T13:25:18;100808.48;;;3.44;72.76
35307;BME280;21420;52.196;21.416;2023-01-27T13:27:48;100813.55;;;3.37;72.86
35307;BME280;21420;52.196;21.416;2023-01-27T13:30:42;100812.63;;;3.35;72.94
35307;BME280;21420;52.196;21.416;2023-01-27T13:36:24;100810.04;;;3.30;73.05
35307;BME280;21420;52.196;21.416;2023-01-27T13:41:38;100812.14;;;3.06;72.58
35307;BME280;21420;52.196;21.416;2023-01-27T13:46:53;100817.19;;;2.93;72.72
35307;BME280;21420;52.196;21.416;2023-01-27T13:49:40;100819.02;;;2.92;72.79
35307;BME280;21420;52.196;21.416;2023-01-27T13:52:10;100819.59;;;2.85;72.78
35307;BME280;21420;52.196;21.416;2023-01-27T13:54:38;100822.96;;;2.79;72.79
35307;BME280;21420;52.196;21.416;2023-01-27T13:59:59;100828.09;;;2.78;72.95
35307;BME280;21420;52.196;21.416;2023-01-27T14:10:56;100831.85;;;2.62;73.07
35307;BME280;21420;52.196;21.416;2023-01-27T14:18:45;100830.49;;;2.48;73.05
35307;BME280;21420;52.196;21.416;2023-01-27T14:45:53;100848.96;;;2.13;73.10
35307;BME280;21420;52.196;21.416;2023-01-27T14:48:42;100846.64;;;2.13;73.27
35307;BME280;21420;52.196;21.416;2023-01-27T14:51:23;100844.67;;;2.10;73.31
35307;BME280;21420;52.196;21.416;2023-01-27T15:01:45;100840.48;;;1.89;72.91
35307;BME280;21420;52.196;21.416;2023-01-27T15:26:36;100843.69;;;1.77;73.48
35307;BME280;21420;52.196;21.416;2023-01-27T15:29:05;100846.77;;;1.73;73.34
35307;BME280;21420;52.196;21.416;2023-01-27T15:31:33;100844.42;;;1.69;73.30
35307;BME280;21420;52.196;21.416;2023-01-27T15:46:52;100861.13;;;1.48;73.33
35307;BME280;21420;52.196;21.416;2023-01-27T15:49:26;100863.07;;;1.48;73.38
35307;BME280;21420;52.196;21.416;2023-01-27T15:52:06;100867.16;;;1.46;73.34
35307;BME280;21420;52.196;21.416;2023-01-27T15:54:39;100865.80;;;1.44;73.39
35307;BME280;21420;52.196;21.416;2023-01-27T15:57:41;100868.61;;;1.43;73.39
35307;BME280;21420;52.196;21.416;2023-01-27T16:02:50;100867.45;;;1.38;73.36
35307;BME280;21420;52.196;21.416;2023-01-27T16:05:24;100871.05;;;1.33;73.34
35307;BME280;21420;52.196;21.416;2023-01-27T16:07:57;100865.91;;;1.31;73.32
35307;BME280;21420;52.196;21.416;2023-01-27T16:10:30;100864.50;;;1.29;73.26
35307;BME280;21420;52.196;21.416;2023-01-27T16:13:33;100864.48;;;1.27;73.38
35307;BME280;21420;52.196;21.416;2023-01-27T16:18:46;100869.05;;;1.23;73.38